Time;durP1;ratioP1;P1;durP2;ratioP2;P2;SDS_P1;SDS_P2;PMS_P1;PMS_P2;Temp;Humidity;BMP_temperature;BMP_pressure;BME280_temperature;BME280_humidity;BME280_pressure;Samples;Min_cycle;Max_cycle;Signal;HPM_P1;HPM_P2
2022/08/14 00:01:04;;;;;;;13.70;8.60;;;19.20;99.90;;;;;;5038824;28;20045;-85
2022/08/14 00:03:30;;;;;;;11.13;9.05;;;19.20;99.90;;;;;;5032763;28;20060;-85
2022/08/14 00:05:59;;;;;;;9.65;8.65;;;19.10;99.90;;;;;;5048614;28;20024;-85
2022/08/14 00:08:25;;;;;;;9.70;8.05;;;19.00;99.90;;;;;;5035009;28;20056;-85
2022/08/14 00:10:51;;;;;;;9.85;7.97;;;19.00;99.90;;;;;;5047323;28;20048;-86
2022/08/14 00:13:47;;;;;;;8.63;7.68;;;19.00;99.90;;;;;;5039345;28;20475;-85
2022/08/14 00:16:13;;;;;;;7.95;7.15;;;19.00;99.90;;;;;;5048809;28;20025;-85
2022/08/14 00:18:39;;;;;;;11.32;8.73;;;19.00;99.90;;;;;;5049488;28;20083;-85
2022/08/14 00:21:52;;;;;;;11.25;8.93;;;19.00;99.90;;;;;;5044432;28;20029;-85
2022/08/14 00:24:19;;;;;;;9.50;8.43;;;18.90;99.90;;;;;;5042172;28;20054;-85
2022/08/14 00:26:45;;;;;;;11.18;8.32;;;18.90;99.90;;;;;;5033416;28;20021;-85
2022/08/14 00:29:15;;;;;;;11.55;8.60;;;18.90;99.90;;;;;;5051382;28;20051;-85
2022/08/14 00:31:41;;;;;;;12.98;9.43;;;18.80;99.90;;;;;;5035539;28;20447;-86
2022/08/14 00:37:41;;;;;;;11.30;9.38;;;18.80;99.90;;;;;;5052210;28;20507;-86
2022/08/14 00:40:08;;;;;;;10.20;8.98;;;18.80;99.90;;;;;;5052374;28;20053;-85
2022/08/14 00:42:49;;;;;;;11.57;8.38;;;18.70;99.90;;;;;;5040123;28;20491;-85
2022/08/14 00:45:16;;;;;;;13.23;9.45;;;18.70;99.90;;;;;;5039620;28;20025;-86
2022/08/14 00:47:43;;;;;;;9.93;8.93;;;18.70;99.90;;;;;;5041460;28;20029;-86
2022/08/14 00:50:12;;;;;;;12.95;9.02;;;18.60;99.90;;;;;;5040385;28;20079;-87
2022/08/14 00:52:38;;;;;;;9.68;8.38;;;18.60;99.90;;;;;;5042133;28;20021;-87
2022/08/14 00:55:56;;;;;;;9.68;8.32;;;18.70;99.90;;;;;;5033734;28;20477;-86
2022/08/14 00:58:33;;;;;;;13.25;9.75;;;18.70;99.90;;;;;;5033085;28;20025;-85
2022/08/14 01:01:01;;;;;;;13.32;10.13;;;18.60;99.90;;;;;;5032645;28;20029;-85
2022/08/14 01:03:40;;;;;;;13.65;9.70;;;18.60;99.90;;;;;;5041493;28;20468;-85
2022/08/14 01:06:07;;;;;;;10.10;8.77;;;18.60;99.90;;;;;;5033362;28;20025;-86
2022/08/14 01:08:34;;;;;;;9.50;8.60;;;18.50;99.90;;;;;;5031386;28;20036;-86
2022/08/14 01:11:37;;;;;;;13.50;10.40;;;18.50;99.90;;;;;;5037280;28;20477;-85
2022/08/14 01:14:35;;;;;;;11.95;9.40;;;18.50;99.90;;;;;;5031073;28;20029;-86
2022/08/14 01:17:00;;;;;;;10.40;8.32;;;18.50;99.90;;;;;;5042296;28;20058;-86
2022/08/14 01:22:37;;;;;;;12.15;9.15;;;18.50;99.90;;;;;;5035879;28;20044;-86
2022/08/14 01:25:06;;;;;;;11.32;8.85;;;18.50;99.90;;;;;;5044794;28;20101;-85
2022/08/14 01:27:33;;;;;;;12.27;9.48;;;18.40;99.90;;;;;;5044457;28;20045;-86
2022/08/14 01:30:22;;;;;;;10.07;9.02;;;18.40;99.90;;;;;;5033906;28;20038;-86
2022/08/14 01:32:49;;;;;;;9.48;8.10;;;18.40;99.90;;;;;;5048913;28;20372;-85
2022/08/14 01:35:39;;;;;;;13.07;9.27;;;18.40;99.90;;;;;;5041762;28;20030;-85
2022/08/14 01:38:04;;;;;;;10.32;9.23;;;18.40;99.90;;;;;;5041120;28;20025;-86
2022/08/14 01:40:46;;;;;;;14.35;10.32;;;18.40;99.90;;;;;;5036947;28;20033;-86
2022/08/14 01:43:14;;;;;;;17.02;11.13;;;18.40;99.90;;;;;;5036332;28;20382;-86
2022/08/14 01:46:10;;;;;;;12.07;9.95;;;18.30;99.90;;;;;;5038082;28;20112;-86
2022/08/14 01:48:37;;;;;;;9.80;8.80;;;18.30;99.90;;;;;;5035577;28;20032;-86
2022/08/14 01:51:06;;;;;;;10.88;9.18;;;18.30;99.90;;;;;;5033813;28;20033;-86
2022/08/14 01:53:52;;;;;;;11.68;10.32;;;18.30;99.90;;;;;;5040311;28;20897;-86
2022/08/14 01:56:18;;;;;;;;;;;18.40;99.90;;;;;;5045457;28;20026;-86
2022/08/14 01:58:48;;;;;;;9.55;8.55;;;18.40;99.90;;;;;;5039798;28;20729;-86
2022/08/14 02:01:18;;;;;;;11.10;9.68;;;18.30;99.90;;;;;;5038123;28;20030;-86
2022/08/14 02:03:45;;;;;;;10.25;8.98;;;18.30;99.90;;;;;;5040464;28;20061;-86
2022/08/14 02:06:34;;;;;;;10.40;9.30;;;18.30;99.90;;;;;;5044954;28;20039;-87
2022/08/14 02:09:02;;;;;;;11.30;9.77;;;18.30;99.90;;;;;;5035834;28;20037;-86
2022/08/14 02:11:37;;;;;;;12.60;9.35;;;18.30;99.90;;;;;;5039947;28;20104;-87
2022/08/14 02:14:12;;;;;;;9.57;8.57;;;18.30;99.90;;;;;;5045542;28;20025;-87
2022/08/14 02:16:40;;;;;;;10.95;9.27;;;18.20;99.90;;;;;;5054990;28;20108;-86
2022/08/14 02:19:20;;;;;;;11.48;9.68;;;18.20;99.90;;;;;;5037342;28;20037;-85
2022/08/14 02:21:49;;;;;;;14.30;10.15;;;18.20;99.90;;;;;;5048018;28;20033;-85
2022/08/14 02:24:22;;;;;;;11.52;10.05;;;18.20;99.90;;;;;;5043220;28;20033;-86
2022/08/14 02:26:48;;;;;;;11.77;10.63;;;18.20;99.90;;;;;;5041175;28;20036;-86
2022/08/14 02:29:19;;;;;;;11.10;10.00;;;18.10;99.90;;;;;;5048268;28;20068;-85
2022/08/14 02:32:00;;;;;;;10.20;9.13;;;18.10;99.90;;;;;;5055087;28;20357;-85
2022/08/14 02:34:31;;;;;;;11.30;9.90;;;18.10;99.90;;;;;;5043162;28;20083;-85
2022/08/14 02:40:22;;;;;;;12.15;10.20;;;18.10;99.90;;;;;;5035893;28;20036;-85
2022/08/14 02:42:49;;;;;;;10.90;9.77;;;18.10;99.90;;;;;;5042104;28;20464;-86
2022/08/14 02:45:22;;;;;;;15.75;10.38;;;18.10;99.90;;;;;;5042270;28;20396;-86
2022/08/14 02:47:48;;;;;;;12.40;9.48;;;18.10;99.90;;;;;;5043992;28;20022;-85
2022/08/14 02:50:16;;;;;;;10.23;9.23;;;18.10;99.90;;;;;;5046486;28;20032;-86
2022/08/14 02:53:29;;;;;;;14.52;10.82;;;18.10;99.90;;;;;;5035259;28;20021;-85
2022/08/14 02:55:55;;;;;;;11.70;10.35;;;18.10;99.90;;;;;;5035749;28;20026;-86
2022/08/14 02:58:22;;;;;;;12.88;10.27;;;18.00;99.90;;;;;;5036143;28;20028;-86
2022/08/14 03:01:09;;;;;;;13.32;9.50;;;18.10;99.90;;;;;;5038272;28;20431;-86
2022/08/14 03:03:35;;;;;;;10.80;9.70;;;18.00;99.90;;;;;;5035354;28;20060;-86
2022/08/14 03:06:03;;;;;;;10.52;9.25;;;18.10;99.90;;;;;;5033524;28;20096;-85
2022/08/14 03:08:32;;;;;;;11.20;10.00;;;18.10;99.90;;;;;;5048523;28;20032;-85
2022/08/14 03:11:05;;;;;;;10.82;9.73;;;18.10;99.90;;;;;;5045479;28;20162;-86
2022/08/14 03:13:50;;;;;;;9.93;8.88;;;18.10;99.90;;;;;;5043649;28;20096;-87
2022/08/14 03:16:23;;;;;;;12.35;10.32;;;18.10;99.90;;;;;;5045359;28;20029;-86
2022/08/14 03:19:25;;;;;;;13.23;10.73;;;18.10;99.90;;;;;;5038979;28;20459;-86
2022/08/14 03:21:52;;;;;;;13.35;11.30;;;18.00;99.90;;;;;;5044750;28;20057;-87
2022/08/14 03:24:19;;;;;;;11.55;10.35;;;17.90;99.90;;;;;;5034553;28;20426;-86
2022/08/14 03:26:46;;;;;;;12.02;10.30;;;18.00;99.90;;;;;;5049679;28;20460;-86
2022/08/14 03:29:13;;;;;;;12.55;9.27;;;18.00;99.90;;;;;;5048070;28;20037;-87
2022/08/14 03:32:11;;;;;;;10.10;9.10;;;18.00;99.90;;;;;;5033755;28;20025;-86
2022/08/14 03:34:37;;;;;;;12.90;10.40;;;18.10;99.90;;;;;;5042889;28;20025;-86
2022/08/14 03:37:11;;;;;;;10.10;9.10;;;18.10;99.90;;;;;;5041505;28;20041;-85
2022/08/14 03:39:37;;;;;;;10.50;9.50;;;18.10;99.90;;;;;;5034720;28;20362;-86
2022/08/14 03:42:03;;;;;;;9.30;8.40;;;18.10;99.90;;;;;;5040818;28;20036;-86
2022/08/14 03:44:34;;;;;;;11.60;9.98;;;18.10;99.90;;;;;;5047612;28;20035;-87
2022/08/14 03:46:59;;;;;;;9.88;8.48;;;18.10;99.90;;;;;;5036504;28;20041;-86
2022/08/14 03:49:25;;;;;;;11.48;10.27;;;18.10;99.90;;;;;;5034379;28;20033;-86
2022/08/14 03:52:03;;;;;;;13.02;10.25;;;18.10;99.90;;;;;;5034167;28;20036;-86
2022/08/14 03:54:29;;;;;;;10.43;9.40;;;18.10;99.90;;;;;;5047229;28;20017;-85
2022/08/14 03:56:59;;;;;;;9.70;8.70;;;18.10;99.90;;;;;;5048232;28;20091;-86
2022/08/14 03:59:50;;;;;;;10.43;9.35;;;18.10;99.90;;;;;;5050129;28;20029;-86
2022/08/14 04:02:16;;;;;;;11.45;10.00;;;18.20;99.90;;;;;;5050180;28;20032;-86
2022/08/14 04:04:43;;;;;;;10.13;9.10;;;18.20;99.90;;;;;;5053031;28;20028;-86
2022/08/14 04:07:27;;;;;;;11.35;9.60;;;18.30;99.90;;;;;;5048269;28;20447;-86
2022/08/14 04:09:53;;;;;;;11.63;9.00;;;18.30;99.90;;;;;;5033370;28;20029;-85
2022/08/14 04:12:46;;;;;;;11.52;10.30;;;18.30;99.90;;;;;;5033552;28;20498;-86
2022/08/14 04:15:18;;;;;;;10.98;9.88;;;18.30;99.90;;;;;;5036871;28;20090;-87
2022/08/14 04:17:44;;;;;;;10.70;9.60;;;18.40;99.90;;;;;;5034753;28;20022;-86
2022/08/14 04:23:32;;;;;;;12.77;10.38;;;18.40;99.90;;;;;;5033989;28;20024;-86
2022/08/14 04:26:31;;;;;;;12.13;9.25;;;18.50;99.90;;;;;;5033358;28;20025;-86
2022/08/14 04:28:57;;;;;;;15.52;11.73;;;18.50;99.90;;;;;;5042083;28;20033;-86
2022/08/14 04:31:23;;;;;;;10.48;9.35;;;18.40;99.90;;;;;;5031918;28;20029;-86
2022/08/14 04:34:26;;;;;;;11.50;10.30;;;18.50;99.90;;;;;;5033557;28;20488;-86
2022/08/14 04:45:16;;;;;;;16.83;12.10;;;18.40;99.90;;;;;;5036704;28;20044;-85
2022/08/14 04:50:27;;;;;;;14.13;12.07;;;18.30;99.90;;;;;;5046071;28;20493;-87
2022/08/14 04:52:58;;;;;;;19.48;13.30;;;18.20;99.90;;;;;;5040917;28;20488;-86
2022/08/14 04:55:23;;;;;;;14.77;11.90;;;18.10;99.90;;;;;;5043181;28;20034;-85
2022/08/14 04:57:51;;;;;;;17.38;12.32;;;18.10;99.90;;;;;;5037679;28;20021;-86
2022/08/14 05:00:21;;;;;;;20.27;14.07;;;18.00;99.90;;;;;;5032823;28;20022;-85
2022/08/14 05:02:57;;;;;;;17.17;14.18;;;18.00;99.90;;;;;;5032624;28;20112;-86
2022/08/14 05:05:23;;;;;;;18.85;12.25;;;17.90;99.90;;;;;;5032898;28;20044;-86
2022/08/14 05:08:22;;;;;;;18.85;13.60;;;17.90;99.90;;;;;;5035177;28;20028;-86
2022/08/14 05:10:50;;;;;;;14.82;12.63;;;17.90;99.90;;;;;;5036243;28;20493;-86
2022/08/14 05:13:29;;;;;;;21.38;14.23;;;17.80;99.90;;;;;;5038596;28;20020;-86
2022/08/14 05:15:58;;;;;;;19.65;14.32;;;17.80;99.90;;;;;;5038000;28;20037;-86
2022/08/14 05:18:37;;;;;;;18.40;12.80;;;17.80;99.90;;;;;;5039517;28;20108;-86
2022/08/14 05:21:06;;;;;;;17.15;13.18;;;17.70;99.90;;;;;;5039467;28;20036;-86
2022/08/14 05:23:34;;;;;;;17.88;12.27;;;17.70;99.90;;;;;;5045420;28;20021;-86
2022/08/14 05:26:01;;;;;;;17.27;13.75;;;17.80;99.90;;;;;;5041507;28;20292;-86
2022/08/14 05:28:31;;;;;;;19.17;12.13;;;17.80;99.90;;;;;;5038442;28;20034;-86
2022/08/14 05:31:00;;;;;;;14.57;11.35;;;17.80;99.90;;;;;;5041936;28;20033;-86
2022/08/14 05:33:27;;;;;;;15.73;12.32;;;17.80;99.90;;;;;;5037790;28;20078;-86
2022/08/14 05:35:59;;;;;;;16.63;12.55;;;17.80;99.90;;;;;;5032363;28;20034;-87
2022/08/14 05:38:26;;;;;;;15.10;12.75;;;17.80;99.90;;;;;;5043396;28;20481;-87
2022/08/14 05:40:52;;;;;;;16.88;13.18;;;17.90;99.90;;;;;;5037286;28;20036;-87
2022/08/14 05:43:18;;;;;;;17.90;13.07;;;17.90;99.90;;;;;;5046618;28;20029;-87
2022/08/14 05:45:57;;;;;;;21.70;12.82;;;18.00;99.90;;;;;;5038945;28;20084;-86
2022/08/14 05:48:23;;;;;;;16.60;11.80;;;18.00;99.90;;;;;;5043406;28;20029;-86
2022/08/14 05:50:50;;;;;;;21.10;14.13;;;18.00;99.90;;;;;;5041333;28;20094;-87
2022/08/14 05:53:16;;;;;;;15.98;14.02;;;18.10;99.90;;;;;;5040613;28;20040;-86
2022/08/14 05:55:54;;;;;;;13.55;11.95;;;18.20;99.90;;;;;;5040698;28;20409;-87
2022/08/14 05:58:20;;;;;;;14.73;12.35;;;18.30;99.90;;;;;;5031578;28;20116;-87
2022/08/14 06:00:46;;;;;;;13.98;11.73;;;18.40;99.90;;;;;;5037806;28;20037;-87
2022/08/14 06:03:15;;;;;;;13.05;11.07;;;18.50;99.90;;;;;;5037924;28;20029;-87
2022/08/14 06:05:42;;;;;;;11.98;10.35;;;18.50;99.90;;;;;;5029954;28;20026;-86
2022/08/14 06:08:26;;;;;;;12.55;10.45;;;18.60;99.90;;;;;;5034144;28;20022;-87
2022/08/14 06:10:54;;;;;;;12.23;10.18;;;18.70;99.90;;;;;;5035289;28;20379;-87
2022/08/14 06:13:21;;;;;;;16.17;10.88;;;18.70;99.90;;;;;;5039076;28;20029;-86
2022/08/14 06:15:48;;;;;;;15.60;11.35;;;18.80;99.90;;;;;;5032529;28;20037;-87
2022/08/14 06:18:17;;;;;;;13.77;11.73;;;18.90;99.90;;;;;;5050124;28;20040;-86
2022/08/14 06:20:43;;;;;;;16.55;13.57;;;18.90;99.90;;;;;;5038408;28;20033;-87
2022/08/14 06:23:09;;;;;;;18.70;13.68;;;19.00;99.90;;;;;;5030470;28;20041;-87
2022/08/14 06:25:34;;;;;;;20.23;14.13;;;19.10;99.90;;;;;;5037142;28;20104;-87
2022/08/14 06:28:00;;;;;;;20.38;14.48;;;19.10;99.90;;;;;;5043173;28;20366;-87
2022/08/14 06:30:29;;;;;;;20.20;13.90;;;19.20;99.90;;;;;;5032817;28;20112;-87
2022/08/14 06:32:55;;;;;;;18.13;13.35;;;19.30;99.90;;;;;;5032931;28;20469;-87
2022/08/14 06:35:21;;;;;;;15.32;12.05;;;19.30;99.90;;;;;;5047065;28;21360;-87
2022/08/14 06:37:52;;;;;;;16.75;11.68;;;19.40;99.90;;;;;;5039297;28;20100;-86
2022/08/14 06:40:26;;;;;;;16.60;12.73;;;19.50;99.90;;;;;;5040253;28;20021;-87
2022/08/14 06:42:52;;;;;;;18.27;11.60;;;19.50;99.90;;;;;;5038110;28;20451;-87
2022/08/14 06:45:18;;;;;;;14.50;10.95;;;19.60;99.90;;;;;;5051229;28;20079;-88
2022/08/14 06:47:46;;;;;;;18.48;13.77;;;19.60;99.90;;;;;;5038233;28;20033;-88
2022/08/14 06:50:14;;;;;;;16.33;12.18;;;19.70;99.90;;;;;;5034902;28;20393;-88
2022/08/14 06:52:41;;;;;;;20.73;12.38;;;19.70;99.90;;;;;;5038537;28;20049;-88
2022/08/14 06:55:08;;;;;;;18.38;13.23;;;19.80;99.90;;;;;;5036482;28;20026;-88
2022/08/14 06:57:39;;;;;;;13.43;11.35;;;19.90;99.90;;;;;;5041912;28;20035;-88
2022/08/14 07:00:08;;;;;;;16.25;11.40;;;19.90;99.90;;;;;;5040433;28;20033;-87
2022/08/14 07:08:19;;;;;;;22.45;12.20;;;20.10;99.90;;;;;;5045445;28;20059;-88
2022/08/14 07:10:46;;;;;;;15.10;11.90;;;20.10;99.90;;;;;;5052185;28;20032;-87
2022/08/14 07:13:14;;;;;;;19.27;13.85;;;20.20;99.90;;;;;;5053814;28;20024;-87
2022/08/14 07:15:45;;;;;;;18.92;13.60;;;20.20;99.90;;;;;;5046987;28;20128;-87
2022/08/14 07:18:12;;;;;;;17.85;12.63;;;20.30;99.90;;;;;;5044281;28;20022;-87
2022/08/14 07:20:40;;;;;;;19.55;13.95;;;20.30;99.90;;;;;;5038894;28;20099;-87
2022/08/14 07:23:07;;;;;;;19.98;14.25;;;20.40;99.90;;;;;;5041270;28;20388;-87
2022/08/14 07:25:57;;;;;;;19.83;14.88;;;20.40;99.90;;;;;;5046047;28;20056;-87
2022/08/14 07:28:30;;;;;;;18.83;13.60;;;20.50;99.90;;;;;;5035241;28;20575;-87
2022/08/14 07:30:57;;;;;;;20.38;13.68;;;20.50;99.90;;;;;;5034572;28;20060;-88
2022/08/14 07:33:25;;;;;;;21.63;15.60;;;20.60;99.90;;;;;;5043775;28;20175;-87
2022/08/14 07:35:54;;;;;;;20.83;15.00;;;20.70;99.90;;;;;;5036047;28;20492;-87
2022/08/14 07:38:22;;;;;;;19.80;13.23;;;20.70;99.90;;;;;;5034652;28;20018;-87
2022/08/14 07:41:02;;;;;;;18.88;13.45;;;20.70;99.90;;;;;;5040960;28;20021;-87
2022/08/14 07:43:28;;;;;;;19.85;14.35;;;20.80;99.90;;;;;;5040746;28;20026;-88
2022/08/14 07:45:54;;;;;;;15.93;11.32;;;20.90;99.90;;;;;;5033424;28;20037;-87
2022/08/14 07:48:55;;;;;;;16.95;12.05;;;20.90;99.90;;;;;;5034588;28;20026;-88
2022/08/14 07:51:33;;;;;;;21.42;13.50;;;21.00;99.90;;;;;;5035419;28;20397;-88
2022/08/14 07:53:58;;;;;;;17.80;12.07;;;21.10;99.90;;;;;;5037303;28;20420;-88
2022/08/14 07:56:35;;;;;;;15.55;12.05;;;21.10;99.90;;;;;;5035618;28;20172;-87
2022/08/14 07:59:00;;;;;;;17.27;13.20;;;21.20;99.90;;;;;;5035398;28;20034;-87
2022/08/14 08:01:33;;;;;;;22.83;14.23;;;21.20;99.90;;;;;;5036564;28;20039;-87
2022/08/14 08:04:02;;;;;;;21.38;13.13;;;21.30;99.90;;;;;;5046679;28;20485;-87
2022/08/14 08:06:29;;;;;;;14.48;11.40;;;21.40;99.90;;;;;;5041632;28;20091;-87
2022/08/14 08:08:58;;;;;;;17.30;12.65;;;21.40;99.90;;;;;;5033837;28;20036;-87
2022/08/14 08:11:45;;;;;;;15.60;11.73;;;21.50;99.90;;;;;;5033768;28;20021;-87
2022/08/14 08:14:11;;;;;;;13.82;11.30;;;21.50;99.90;;;;;;5032852;28;20081;-88
2022/08/14 08:16:37;;;;;;;14.43;10.35;;;21.50;99.90;;;;;;5033432;28;20064;-87
2022/08/14 08:19:04;;;;;;;20.52;12.25;;;21.60;99.90;;;;;;5033444;28;20033;-87
2022/08/14 08:21:30;;;;;;;16.00;10.90;;;21.60;99.90;;;;;;5033235;28;20068;-87
2022/08/14 08:23:55;;;;;;;17.85;11.77;;;21.70;99.90;;;;;;5039774;28;20064;-87
2022/08/14 08:26:28;;;;;;;15.27;10.60;;;21.80;99.90;;;;;;5041511;28;20111;-88
2022/08/14 08:29:09;;;;;;;11.48;10.23;;;21.90;99.90;;;;;;5032928;28;20494;-88
2022/08/14 08:31:48;;;;;;;12.05;10.30;;;22.10;99.90;;;;;;5039915;28;20082;-88
2022/08/14 08:34:14;;;;;;;15.07;11.57;;;22.20;99.90;;;;;;5035666;28;20029;-87
2022/08/14 08:36:42;;;;;;;12.32;10.93;;;22.30;99.90;;;;;;5048793;28;20025;-87
2022/08/14 08:39:09;;;;;;;19.60;11.38;;;22.40;99.90;;;;;;5049259;28;20029;-87
2022/08/14 08:42:23;;;;;;;19.15;11.32;;;22.60;99.90;;;;;;5031865;28;20029;-87
2022/08/14 08:44:53;;;;;;;19.20;10.90;;;22.70;99.90;;;;;;5032169;28;20048;-87
2022/08/14 08:47:37;;;;;;;14.10;9.88;;;22.80;99.90;;;;;;5033475;28;20492;-87
2022/08/14 08:50:03;;;;;;;12.50;9.82;;;22.90;99.90;;;;;;5038307;28;20056;-87
2022/08/14 08:53:24;;;;;;;12.68;9.80;;;23.00;99.90;;;;;;5043615;28;20056;-87
2022/08/14 08:55:49;;;;;;;12.25;10.25;;;23.00;99.90;;;;;;5035609;28;20504;-87
2022/08/14 08:58:18;;;;;;;17.27;11.15;;;23.10;99.90;;;;;;5042563;28;20021;-87
2022/08/14 09:00:50;;;;;;;16.90;10.75;;;23.20;99.90;;;;;;5037189;28;20521;-87
2022/08/14 09:03:20;;;;;;;16.50;10.02;;;23.20;99.90;;;;;;5041256;28;20029;-87
2022/08/14 09:06:02;;;;;;;11.73;9.50;;;23.30;99.90;;;;;;5041403;28;20021;-88
2022/08/14 09:08:30;;;;;;;17.83;10.93;;;23.40;99.90;;;;;;5032099;28;20036;-87
2022/08/14 09:11:11;;;;;;;11.82;9.82;;;23.40;99.90;;;;;;5031490;28;20037;-87
2022/08/14 09:13:36;;;;;;;13.90;9.23;;;23.50;99.90;;;;;;5036075;28;20021;-87
2022/08/14 09:16:02;;;;;;;13.13;9.88;;;23.70;99.90;;;;;;5032478;28;20413;-87
2022/08/14 09:18:30;;;;;;;11.93;8.88;;;23.80;99.90;;;;;;5036594;28;20034;-87
2022/08/14 09:20:56;;;;;;;11.18;9.10;;;24.00;99.90;;;;;;5046459;28;20021;-87
2022/08/14 09:26:44;;;;;;;10.43;8.60;;;24.40;99.90;;;;;;5032409;28;20052;-87
2022/08/14 09:29:11;;;;;;;13.95;8.57;;;24.60;99.90;;;;;;5036705;28;20059;-87
2022/08/14 09:31:41;;;;;;;19.42;9.65;;;24.60;99.90;;;;;;5038048;28;20048;-87
2022/08/14 09:34:09;;;;;;;13.20;9.02;;;24.70;99.90;;;;;;5031669;28;20032;-87
2022/08/14 09:37:01;;;;;;;11.25;8.43;;;24.80;99.90;;;;;;5031298;28;20022;-87
2022/08/14 09:40:07;;;;;;;13.40;9.48;;;24.90;99.90;;;;;;5032829;28;20030;-87
2022/08/14 09:42:45;;;;;;;10.63;8.75;;;25.00;99.90;;;;;;5031704;28;20045;-87
2022/08/14 09:45:16;;;;;;;16.70;8.75;;;25.10;99.90;;;;;;5032474;28;20575;-87
2022/08/14 09:47:56;;;;;;;9.90;8.18;;;25.10;99.90;;;;;;5030826;28;20033;-86
2022/08/14 09:50:31;;;;;;;11.88;9.05;;;25.10;99.90;;;;;;5035071;28;20047;-87
2022/08/14 09:53:01;;;;;;;13.48;9.15;;;25.10;99.90;;;;;;5044063;28;20385;-87
2022/08/14 09:55:32;;;;;;;13.35;8.35;;;25.20;99.90;;;;;;5037012;28;20144;-87
2022/08/14 09:58:14;;;;;;;11.43;9.00;;;25.30;99.90;;;;;;5047306;28;20029;-86
2022/08/14 10:00:58;;;;;;;11.70;9.70;;;25.40;99.90;;;;;;5042272;28;20024;-86
2022/08/14 10:03:56;;;;;;;11.80;9.15;;;25.40;99.90;;;;;;5042641;28;20115;-87
2022/08/14 10:06:25;;;;;;;11.50;8.75;;;25.40;99.90;;;;;;5038145;28;20416;-87
2022/08/14 10:09:10;;;;;;;14.60;8.93;;;25.50;99.90;;;;;;5045692;28;20029;-87
2022/08/14 10:11:38;;;;;;;12.52;8.23;;;25.60;99.90;;;;;;5044947;28;20027;-88
2022/08/14 10:14:17;;;;;;;12.85;8.48;;;25.60;99.90;;;;;;5039580;28;20535;-88
2022/08/14 10:16:45;;;;;;;11.45;9.00;;;25.70;99.90;;;;;;5038160;28;20033;-88
2022/08/14 10:19:14;;;;;;;14.02;8.88;;;25.70;99.90;;;;;;5040559;28;20362;-85
2022/08/14 10:22:09;;;;;;;15.55;7.97;;;25.70;99.90;;;;;;5062340;28;20033;-85
2022/08/14 10:24:40;;;;;;;13.93;8.37;;;25.80;99.90;;;;;;5044552;28;20033;-85
2022/08/14 10:27:33;;;;;;;11.48;8.70;;;25.80;99.90;;;;;;5044880;28;20447;-85
2022/08/14 10:29:59;;;;;;;11.32;7.45;;;25.70;99.90;;;;;;5034696;28;20091;-87
2022/08/14 10:32:27;;;;;;;11.95;8.50;;;25.80;99.90;;;;;;5040370;28;20021;-86
2022/08/14 10:35:13;;;;;;;10.25;8.27;;;25.80;99.90;;;;;;5038414;28;20030;-85
2022/08/14 10:37:46;;;;;;;12.07;8.45;;;25.80;99.90;;;;;;5042895;28;20028;-84
2022/08/14 10:40:27;;;;;;;16.08;9.13;;;25.80;99.90;;;;;;5050222;28;20017;-87
2022/08/14 10:42:58;;;;;;;12.73;8.43;;;25.90;99.90;;;;;;5042523;28;20030;-87
2022/08/14 10:45:30;;;;;;;12.13;9.18;;;25.90;99.90;;;;;;5041840;28;20470;-87
2022/08/14 10:47:57;;;;;;;11.43;8.05;;;25.90;99.90;;;;;;5044697;28;20029;-87
2022/08/14 10:50:44;;;;;;;11.30;8.57;;;25.80;99.90;;;;;;5047209;28;20437;-86
2022/08/14 10:53:10;;;;;;;13.15;8.82;;;25.90;99.90;;;;;;5053719;28;20021;-87
2022/08/14 10:55:40;;;;;;;12.80;8.25;;;25.90;99.90;;;;;;5051823;28;20021;-87
2022/08/14 10:58:10;;;;;;;11.95;8.25;;;26.00;99.90;;;;;;5052541;28;20022;-87
2022/08/14 11:00:38;;;;;;;12.82;9.25;;;26.00;99.90;;;;;;5034081;28;20025;-87
2022/08/14 11:03:24;;;;;;;13.48;8.85;;;26.00;99.90;;;;;;5039805;28;20033;-87
2022/08/14 11:05:51;;;;;;;11.05;8.48;;;26.10;99.90;;;;;;5049265;28;20059;-86
2022/08/14 11:08:36;;;;;;;11.27;9.23;;;26.00;99.90;;;;;;5038412;28;20029;-86
2022/08/14 11:11:04;;;;;;;15.55;8.38;;;26.10;99.90;;;;;;5035582;28;20164;-85
2022/08/14 11:13:30;;;;;;;12.45;8.32;;;26.10;99.90;;;;;;5038153;28;20377;-86
2022/08/14 11:16:01;;;;;;;13.10;9.00;;;26.20;99.90;;;;;;5036451;28;20047;-86
2022/08/14 11:19:19;;;;;;;10.70;9.25;;;26.20;99.90;;;;;;5039298;28;20021;-86
2022/08/14 11:21:48;;;;;;;11.95;8.18;;;26.30;99.90;;;;;;5039306;28;20454;-86
2022/08/14 11:24:17;;;;;;;12.00;9.10;;;26.30;99.90;;;;;;5041743;28;20029;-87
2022/08/14 11:26:45;;;;;;;10.95;8.70;;;26.40;99.90;;;;;;5038363;28;20021;-87
2022/08/14 11:29:11;;;;;;;9.07;7.93;;;26.50;99.90;;;;;;5034290;28;20128;-86
2022/08/14 11:31:37;;;;;;;9.73;7.65;;;26.60;99.90;;;;;;5036412;28;20096;-87
2022/08/14 11:34:03;;;;;;;11.10;8.00;;;26.60;99.90;;;;;;5033308;28;20075;-86
2022/08/14 11:36:29;;;;;;;12.77;8.35;;;26.70;99.90;;;;;;5043320;28;20029;-86
2022/08/14 11:38:55;;;;;;;17.02;7.75;;;26.80;99.90;;;;;;5040656;28;20036;-87
2022/08/14 11:42:07;;;;;;;14.73;7.88;;;26.90;99.90;;;;;;5051825;28;20550;-86
2022/08/14 11:44:33;;;;;;;8.35;7.22;;;26.90;99.90;;;;;;5047331;28;20413;-86
2022/08/14 11:47:04;;;;;;;9.73;8.27;;;27.00;99.90;;;;;;5033008;28;20025;-86
2022/08/14 11:49:30;;;;;;;10.95;7.97;;;27.10;99.90;;;;;;5039383;28;20029;-86
2022/08/14 11:51:56;;;;;;;10.90;7.78;;;27.20;99.90;;;;;;5039665;28;20480;-86
2022/08/14 11:54:22;;;;;;;11.77;7.93;;;27.20;99.90;;;;;;5040751;28;20055;-86
2022/08/14 11:56:51;;;;;;;9.85;7.35;;;27.10;99.90;;;;;;5037136;28;20049;-86
2022/08/14 11:59:20;;;;;;;8.48;7.43;;;27.20;99.90;;;;;;5033828;28;20040;-88
2022/08/14 12:01:45;;;;;;;12.80;7.78;;;27.20;99.90;;;;;;5032407;28;20029;-86
2022/08/14 12:04:20;;;;;;;15.73;8.68;;;27.30;99.60;;;;;;5036886;28;20026;-85
2022/08/14 12:06:48;;;;;;;11.30;8.23;;;27.40;99.70;;;;;;5040105;28;20128;-86
2022/08/14 12:09:32;;;;;;;10.93;7.50;;;27.50;98.00;;;;;;5039593;28;20022;-86
2022/08/14 12:11:58;;;;;;;11.70;8.60;;;27.60;98.40;;;;;;5044432;28;20420;-85
2022/08/14 12:14:56;;;;;;;14.32;8.18;;;27.60;96.30;;;;;;5045788;28;20021;-85
2022/08/14 12:17:50;;;;;;;9.55;6.97;;;27.50;95.50;;;;;;5034564;28;20547;-87
2022/08/14 12:20:16;;;;;;;10.52;6.70;;;27.50;93.50;;;;;;5034323;28;20096;-86
2022/08/14 12:22:53;;;;;;;12.65;7.25;;;27.50;90.60;;;;;;5034309;28;20108;-86
2022/08/14 12:25:21;;;;;;;8.05;6.40;;;27.60;90.50;;;;;;5045774;28;20029;-85
2022/08/14 12:27:54;;;;;;;7.82;6.55;;;27.70;88.00;;;;;;5040478;28;20025;-84
2022/08/14 12:30:26;;;;;;;11.70;6.72;;;27.70;85.10;;;;;;5038803;28;20029;-85
2022/08/14 12:32:51;;;;;;;9.73;6.47;;;27.60;85.60;;;;;;5048925;28;20024;-84
2022/08/14 12:35:35;;;;;;;6.30;5.70;;;27.60;82.70;;;;;;5042255;28;20017;-86
2022/08/14 12:38:01;;;;;;;9.45;5.80;;;27.60;75.90;;;;;;5034283;28;20032;-85
2022/08/14 12:40:30;;;;;;;8.45;5.97;;;27.60;73.50;;;;;;5036663;28;20067;-84
2022/08/14 12:43:07;;;;;;;7.85;6.03;;;27.60;71.70;;;;;;5038980;28;20029;-84
2022/08/14 12:45:35;;;;;;;8.88;6.22;;;27.60;71.80;;;;;;5034628;28;20021;-84
2022/08/14 12:48:08;;;;;;;7.47;5.25;;;27.60;70.20;;;;;;5045130;28;20025;-83
2022/08/14 12:50:36;;;;;;;8.85;5.70;;;27.60;70.30;;;;;;5037250;28;20079;-84
2022/08/14 12:53:06;;;;;;;12.00;5.65;;;27.50;68.70;;;;;;5039636;28;20021;-86
2022/08/14 12:55:34;;;;;;;12.90;5.65;;;27.60;69.00;;;;;;5034116;28;20105;-84
2022/08/14 12:58:19;;;;;;;8.65;5.60;;;27.50;65.80;;;;;;5045054;28;20017;-84
2022/08/14 13:00:49;;;;;;;9.07;6.07;;;27.50;66.70;;;;;;5041528;28;20384;-85
2022/08/14 13:03:28;;;;;;;6.85;5.50;;;27.50;64.90;;;;;;5039244;28;20511;-84
2022/08/14 13:06:08;;;;;;;10.32;5.60;;;27.60;61.80;;;;;;5041117;28;20056;-84
2022/08/14 13:08:35;;;;;;;6.68;5.50;;;27.70;63.10;;;;;;5040038;28;20021;-84
2022/08/14 13:11:05;;;;;;;13.32;4.40;;;27.90;63.50;;;;;;5036932;28;20045;-84
2022/08/14 13:13:38;;;;;;;7.43;4.80;;;28.00;62.70;;;;;;5036548;28;20028;-83
2022/08/14 13:16:15;;;;;;;9.25;5.35;;;28.20;60.90;;;;;;5044988;28;20040;-84
2022/08/14 13:18:42;;;;;;;9.40;4.65;;;28.20;59.60;;;;;;5040484;28;20025;-84
2022/08/14 13:21:12;;;;;;;9.38;4.90;;;28.30;58.20;;;;;;5038246;28;20041;-84
2022/08/14 13:23:44;;;;;;;9.80;5.20;;;28.40;59.20;;;;;;5038818;28;20428;-84
2022/08/14 13:26:10;;;;;;;8.43;4.90;;;28.50;58.20;;;;;;5040984;28;20022;-84
2022/08/14 13:28:42;;;;;;;7.82;4.63;;;28.70;58.50;;;;;;5040063;28;20477;-84
2022/08/14 13:31:11;;;;;;;10.88;5.25;;;28.60;58.40;;;;;;5052665;28;20021;-84
2022/08/14 13:33:39;;;;;;;11.55;5.45;;;28.70;57.90;;;;;;5039531;28;20029;-84
2022/08/14 13:36:05;;;;;;;14.55;5.15;;;28.60;57.40;;;;;;5043438;28;20026;-82
2022/08/14 13:38:43;;;;;;;6.97;5.22;;;28.60;57.20;;;;;;5032862;28;20370;-87